Time;durP1;ratioP1;P1;durP2;ratioP2;P2;SDS_P1;SDS_P2;PMS_P1;PMS_P2;Temp;Humidity;BMP_temperature;BMP_pressure;BME280_temperature;BME280_humidity;BME280_pressure;Samples;Min_cycle;Max_cycle;Signal;HPM_P1;HPM_P2
2022/09/03 00:02:27;;;;;;;2.80;1.92;;;13.30;99.90;;;;;;5053777;28;20424;-74
2022/09/03 00:05:15;;;;;;;2.58;1.85;;;13.20;99.90;;;;;;5053808;28;20031;-73
2022/09/03 00:07:48;;;;;;;3.65;2.25;;;13.20;99.90;;;;;;5052096;28;20032;-73
2022/09/03 00:10:40;;;;;;;4.55;1.95;;;13.20;99.90;;;;;;5054188;28;20028;-73
2022/09/03 00:13:09;;;;;;;3.60;2.30;;;13.20;99.90;;;;;;5053777;28;20519;-73
2022/09/03 00:15:38;;;;;;;3.67;2.58;;;13.20;99.90;;;;;;5054155;28;20458;-73
2022/09/03 00:18:15;;;;;;;4.22;2.38;;;13.10;99.90;;;;;;5053514;28;20100;-74
2022/09/03 00:20:53;;;;;;;4.93;2.60;;;13.00;99.90;;;;;;5052198;28;20029;-73
2022/09/03 00:23:22;;;;;;;3.90;2.63;;;12.90;99.90;;;;;;5051963;28;20473;-74
2022/09/03 00:26:28;;;;;;;4.03;2.67;;;12.90;99.90;;;;;;5053382;28;20060;-74
2022/09/03 00:29:10;;;;;;;3.15;2.53;;;13.00;99.90;;;;;;5053902;28;20021;-74
2022/09/03 00:31:43;;;;;;;4.82;2.60;;;13.00;99.90;;;;;;5053687;28;20429;-74
2022/09/03 00:34:16;;;;;;;5.05;2.88;;;13.10;99.90;;;;;;5053629;28;20021;-74
2022/09/03 00:36:44;;;;;;;4.82;3.10;;;13.10;99.90;;;;;;5053142;28;20481;-73
2022/09/03 00:39:13;;;;;;;4.18;2.60;;;13.20;99.90;;;;;;5053231;28;20067;-74
2022/09/03 00:41:53;;;;;;;6.05;2.67;;;13.20;99.90;;;;;;5053528;28;20025;-74
2022/09/03 00:44:47;;;;;;;5.38;2.60;;;13.20;99.90;;;;;;5053535;28;20100;-74
2022/09/03 00:47:12;;;;;;;3.35;2.65;;;13.30;99.90;;;;;;5053157;28;20363;-72
2022/09/03 00:49:58;;;;;;;3.33;2.45;;;13.30;99.90;;;;;;5053185;28;20024;-73
2022/09/03 00:52:33;;;;;;;3.40;2.42;;;13.30;99.90;;;;;;5053000;28;20432;-74
2022/09/03 00:55:15;;;;;;;6.15;2.50;;;13.30;99.90;;;;;;5053007;28;20025;-74
2022/09/03 00:57:52;;;;;;;4.47;2.50;;;13.20;99.90;;;;;;5053114;28;20033;-74
2022/09/03 01:00:19;;;;;;;6.20;2.58;;;13.10;99.90;;;;;;5033470;28;20025;-74
2022/09/03 01:03:07;;;;;;;4.82;2.78;;;13.10;99.90;;;;;;5036025;28;20497;-74
2022/09/03 01:05:52;;;;;;;3.92;2.60;;;13.10;99.90;;;;;;5052807;28;20045;-74
2022/09/03 01:08:37;;;;;;;5.35;2.63;;;13.20;99.90;;;;;;5052658;28;20014;-74
2022/09/03 01:11:46;;;;;;;4.88;2.65;;;13.20;99.90;;;;;;5052681;28;20025;-74
2022/09/03 01:14:26;;;;;;;3.85;2.33;;;13.20;99.90;;;;;;5051957;28;20044;-73
2022/09/03 01:16:59;;;;;;;4.03;2.85;;;13.30;99.90;;;;;;5052657;28;20512;-73
2022/09/03 01:19:51;;;;;;;4.47;2.65;;;13.30;99.90;;;;;;5055251;28;20032;-73
2022/09/03 01:22:20;;;;;;;4.95;2.88;;;13.30;99.90;;;;;;5052512;28;20037;-74
2022/09/03 01:25:01;;;;;;;4.45;3.25;;;13.40;99.90;;;;;;5056368;28;20025;-73
2022/09/03 01:27:29;;;;;;;4.53;2.70;;;13.40;99.90;;;;;;5053534;28;20481;-74
2022/09/03 01:30:04;;;;;;;3.33;2.63;;;13.40;99.90;;;;;;5056162;28;20044;-73
2022/09/03 01:32:42;;;;;;;3.80;2.65;;;13.30;99.90;;;;;;5054827;28;20025;-73
2022/09/03 01:35:29;;;;;;;3.83;2.85;;;13.30;99.90;;;;;;5056596;28;20055;-73
2022/09/03 01:38:19;;;;;;;5.43;3.17;;;13.30;99.90;;;;;;5056317;28;20029;-73
2022/09/03 01:44:08;;;;;;;5.57;2.90;;;13.20;99.90;;;;;;5056106;28;20027;-74
2022/09/03 01:46:39;;;;;;;4.68;2.88;;;13.10;99.90;;;;;;5056645;28;20017;-74
2022/09/03 01:49:35;;;;;;;4.65;2.60;;;13.10;99.90;;;;;;5056762;28;20023;-73
2022/09/03 01:52:43;;;;;;;4.55;2.90;;;13.10;99.90;;;;;;5056528;28;20032;-74
2022/09/03 01:55:19;;;;;;;5.47;3.67;;;13.20;99.90;;;;;;5036245;28;20397;-74
2022/09/03 01:58:07;;;;;;;3.95;2.78;;;13.20;99.90;;;;;;5034961;28;20104;-73
2022/09/03 02:00:36;;;;;;;3.85;2.60;;;13.20;99.90;;;;;;5036116;28;20025;-74
2022/09/03 02:03:05;;;;;;;4.28;2.75;;;13.20;99.90;;;;;;5036101;28;20018;-74
2022/09/03 02:05:31;;;;;;;5.03;2.65;;;13.20;99.90;;;;;;5036363;28;20022;-74
2022/09/03 02:08:03;;;;;;;3.95;3.00;;;13.30;99.90;;;;;;5046619;28;20481;-73
2022/09/03 02:10:37;;;;;;;4.15;2.70;;;13.20;99.90;;;;;;5055858;28;20021;-74
2022/09/03 02:13:25;;;;;;;4.18;3.10;;;13.20;99.90;;;;;;5055986;28;20029;-74
2022/09/03 02:15:55;;;;;;;3.97;2.80;;;13.20;99.90;;;;;;5055778;28;20036;-74
2022/09/03 02:18:29;;;;;;;4.20;2.60;;;13.20;99.90;;;;;;5055870;28;20017;-73
2022/09/03 02:20:56;;;;;;;3.50;2.45;;;13.20;99.90;;;;;;5055475;28;20021;-73
2022/09/03 02:23:23;;;;;;;3.33;2.53;;;13.20;99.90;;;;;;5055634;28;20056;-74
2022/09/03 02:25:57;;;;;;;3.33;2.45;;;13.20;99.90;;;;;;5056147;28;20063;-74
2022/09/03 02:28:22;;;;;;;6.25;3.30;;;13.20;99.90;;;;;;5055678;28;20017;-74
2022/09/03 02:30:48;;;;;;;5.30;3.20;;;13.20;99.90;;;;;;5054668;28;20033;-74
2022/09/03 02:33:15;;;;;;;4.25;3.00;;;13.20;99.90;;;;;;5055738;28;20036;-74
2022/09/03 02:35:41;;;;;;;4.50;3.40;;;13.10;99.90;;;;;;5055190;28;20025;-73
2022/09/03 02:38:16;;;;;;;4.50;3.38;;;13.10;99.90;;;;;;5055297;28;20544;-73
2022/09/03 02:40:43;;;;;;;3.97;3.08;;;13.10;99.90;;;;;;5055564;28;20032;-74
2022/09/03 02:43:26;;;;;;;5.80;2.92;;;13.10;99.90;;;;;;5055564;28;20100;-74
2022/09/03 02:45:57;;;;;;;4.60;3.38;;;13.10;99.90;;;;;;5055280;28;20021;-75
2022/09/03 02:48:23;;;;;;;;;;;13.10;99.90;;;;;;5055563;28;20046;-74
2022/09/03 02:50:49;;;;;;;4.55;3.60;;;13.10;99.90;;;;;;5054943;28;19991;-75
2022/09/03 02:53:15;;;;;;;3.38;2.80;;;13.10;99.90;;;;;;5055372;28;20071;-75
2022/09/03 02:55:42;;;;;;;3.83;2.78;;;13.10;99.90;;;;;;5055308;28;20025;-74
2022/09/03 02:58:08;;;;;;;4.45;3.17;;;13.10;99.90;;;;;;5055240;28;20082;-74
2022/09/03 03:00:37;;;;;;;3.95;2.78;;;13.20;99.90;;;;;;5054862;28;20029;-74
2022/09/03 03:03:04;;;;;;;3.65;2.63;;;13.10;99.90;;;;;;5055018;28;20408;-72
2022/09/03 03:05:50;;;;;;;4.00;2.97;;;13.10;99.90;;;;;;5054738;28;20029;-74
2022/09/03 03:08:19;;;;;;;4.03;2.80;;;13.10;99.90;;;;;;5053464;28;20547;-74
2022/09/03 03:10:46;;;;;;;3.95;2.78;;;13.00;99.90;;;;;;5054991;28;20044;-74
2022/09/03 03:13:13;;;;;;;3.85;2.85;;;13.10;99.90;;;;;;5054526;28;20044;-74
2022/09/03 03:15:39;;;;;;;4.28;2.80;;;13.00;99.90;;;;;;5053455;28;20033;-74
2022/09/03 03:18:06;;;;;;;3.25;2.80;;;13.10;99.90;;;;;;5054859;28;20029;-73
2022/09/03 03:20:32;;;;;;;4.38;2.75;;;13.10;99.90;;;;;;5055058;28;20029;-74
2022/09/03 03:23:00;;;;;;;6.72;3.35;;;13.10;99.90;;;;;;5054503;28;20493;-74
2022/09/03 03:25:26;;;;;;;4.68;3.00;;;13.10;99.90;;;;;;5054731;28;20397;-74
2022/09/03 03:27:55;;;;;;;3.90;3.00;;;13.10;99.90;;;;;;5054362;28;20032;-73
2022/09/03 03:30:22;;;;;;;4.15;2.97;;;13.10;99.90;;;;;;5054347;28;20095;-74
2022/09/03 03:32:47;;;;;;;4.20;2.95;;;13.10;99.90;;;;;;5054118;28;20025;-73
2022/09/03 03:35:13;;;;;;;3.65;2.80;;;13.10;99.90;;;;;;5054500;28;20501;-73
2022/09/03 03:37:39;;;;;;;4.90;3.35;;;13.00;99.90;;;;;;5054201;28;20056;-74
2022/09/03 03:40:06;;;;;;;3.80;3.13;;;12.90;99.90;;;;;;5054449;28;20157;-73
2022/09/03 03:42:35;;;;;;;5.20;3.50;;;12.80;99.90;;;;;;5053828;28;20091;-73
2022/09/03 03:45:01;;;;;;;5.50;4.20;;;12.70;99.90;;;;;;5052846;28;20083;-73
2022/09/03 03:47:31;;;;;;;4.03;3.53;;;12.60;99.90;;;;;;5054158;28;20099;-73
2022/09/03 03:49:57;;;;;;;6.13;3.70;;;12.50;99.90;;;;;;5054012;28;20547;-74
2022/09/03 03:52:24;;;;;;;4.18;3.55;;;12.50;99.90;;;;;;5053961;28;20033;-74
2022/09/03 03:54:50;;;;;;;4.60;3.78;;;12.40;99.90;;;;;;5054458;28;20102;-74
2022/09/03 03:57:18;;;;;;;6.10;3.70;;;12.50;99.90;;;;;;5053848;28;20436;-73
2022/09/03 03:59:44;;;;;;;4.63;3.63;;;12.60;99.90;;;;;;5053619;28;20043;-73
2022/09/03 04:02:10;;;;;;;5.15;3.33;;;12.60;99.90;;;;;;5053759;28;20056;-74
2022/09/03 04:04:35;;;;;;;3.90;3.25;;;12.70;99.90;;;;;;5054041;28;20063;-74
2022/09/03 04:07:01;;;;;;;5.38;3.72;;;12.70;99.90;;;;;;5053973;28;20083;-74
2022/09/03 04:09:27;;;;;;;4.95;3.35;;;12.70;99.90;;;;;;5053941;28;20147;-74
2022/09/03 04:11:52;;;;;;;4.72;3.25;;;12.70;99.90;;;;;;5053657;28;20021;-74
2022/09/03 04:14:18;;;;;;;3.88;3.20;;;12.80;99.90;;;;;;5053431;28;20037;-73
2022/09/03 04:16:45;;;;;;;5.82;3.35;;;12.80;99.90;;;;;;5052320;28;20036;-74
2022/09/03 04:19:11;;;;;;;4.18;3.30;;;12.80;99.90;;;;;;5052191;28;20037;-73
2022/09/03 04:21:38;;;;;;;5.47;3.10;;;12.90;99.90;;;;;;5053737;28;20029;-74
2022/09/03 04:24:05;;;;;;;8.00;3.13;;;12.90;99.90;;;;;;5053512;28;20490;-73
2022/09/03 04:26:32;;;;;;;5.38;3.20;;;12.80;99.90;;;;;;5053487;28;20060;-74
2022/09/03 04:29:09;;;;;;;4.28;3.28;;;12.80;99.90;;;;;;5053268;28;20512;-74
2022/09/03 04:31:36;;;;;;;3.97;3.13;;;12.80;99.90;;;;;;5053422;28;20028;-74
2022/09/03 04:34:05;;;;;;;4.50;3.35;;;12.80;99.90;;;;;;5053348;28;20370;-74
2022/09/03 04:36:32;;;;;;;3.90;3.15;;;12.80;99.90;;;;;;5053278;28;20103;-73
2022/09/03 04:38:59;;;;;;;5.70;3.60;;;12.80;99.90;;;;;;5053609;28;20045;-73
2022/09/03 04:41:30;;;;;;;3.80;3.40;;;12.90;99.90;;;;;;5053209;28;20039;-74
2022/09/03 04:43:58;;;;;;;4.38;3.13;;;12.90;99.90;;;;;;5052958;28;20024;-73
2022/09/03 04:46:26;;;;;;;3.83;3.13;;;12.90;99.90;;;;;;5053279;28;20040;-74
2022/09/03 04:48:53;;;;;;;4.43;3.30;;;12.90;99.90;;;;;;5053170;28;20473;-73
2022/09/03 04:51:26;;;;;;;4.13;2.70;;;12.90;99.90;;;;;;5053197;28;20460;-74
2022/09/03 04:53:57;;;;;;;4.43;3.20;;;13.00;99.90;;;;;;5055468;28;20458;-74
2022/09/03 04:56:28;;;;;;;4.70;3.45;;;13.00;99.90;;;;;;5057049;28;20060;-73
2022/09/03 04:58:58;;;;;;;;;;;13.00;99.90;;;;;;5057638;28;20052;-74
2022/09/03 05:01:26;;;;;;;4.60;3.30;;;13.00;99.90;;;;;;5057651;28;20246;-74
2022/09/03 05:03:54;;;;;;;4.60;3.65;;;13.00;99.90;;;;;;5057409;28;20085;-74
2022/09/03 05:06:19;;;;;;;5.53;3.13;;;13.00;99.90;;;;;;5057669;28;20100;-74
2022/09/03 05:08:49;;;;;;;5.75;3.60;;;13.00;99.90;;;;;;5057040;28;20215;-73
2022/09/03 05:11:15;;;;;;;3.50;3.00;;;13.00;99.90;;;;;;5057003;28;20379;-73
2022/09/03 05:13:41;;;;;;;4.70;3.33;;;13.00;99.90;;;;;;5055646;28;20101;-73
2022/09/03 05:16:09;;;;;;;4.60;3.60;;;13.00;99.90;;;;;;5056905;28;20539;-73
2022/09/03 05:18:36;;;;;;;4.20;3.38;;;13.00;99.90;;;;;;5057089;28;20110;-74
2022/09/03 05:21:04;;;;;;;4.75;3.30;;;13.00;99.90;;;;;;5057130;28;20457;-75
2022/09/03 05:23:31;;;;;;;4.28;3.13;;;13.00;99.90;;;;;;5056844;28;20021;-75
2022/09/03 05:25:58;;;;;;;7.00;3.60;;;13.00;99.90;;;;;;5055316;28;20119;-73
2022/09/03 05:28:29;;;;;;;4.03;3.05;;;13.10;99.90;;;;;;5056693;28;20017;-74
2022/09/03 05:31:01;;;;;;;4.43;3.25;;;13.10;99.90;;;;;;5055470;28;20059;-74
2022/09/03 05:33:27;;;;;;;4.63;2.92;;;13.10;99.90;;;;;;5055392;28;20505;-74
2022/09/03 05:35:59;;;;;;;4.00;3.05;;;13.10;99.90;;;;;;5056576;28;20032;-75
2022/09/03 05:38:25;;;;;;;5.55;3.38;;;13.20;99.90;;;;;;5056269;28;20029;-74
2022/09/03 05:40:50;;;;;;;4.13;3.42;;;13.20;99.90;;;;;;5056669;28;20025;-75
2022/09/03 05:43:16;;;;;;;5.30;3.70;;;13.30;99.90;;;;;;5056684;28;20040;-75
2022/09/03 05:45:42;;;;;;;4.13;3.35;;;13.30;99.90;;;;;;5056669;28;20526;-74
2022/09/03 05:48:08;;;;;;;6.65;3.53;;;13.40;99.90;;;;;;5056258;28;20083;-74
2022/09/03 05:50:33;;;;;;;5.50;3.70;;;13.50;99.90;;;;;;5056281;28;20029;-74
2022/09/03 05:52:59;;;;;;;5.20;3.80;;;13.50;99.90;;;;;;5055984;28;20040;-74
2022/09/03 05:55:27;;;;;;;6.50;3.88;;;13.60;99.90;;;;;;5056090;28;20029;-74
2022/09/03 05:57:53;;;;;;;6.35;3.95;;;13.60;99.90;;;;;;5054933;28;20021;-74
2022/09/03 06:00:19;;;;;;;5.47;4.45;;;13.70;99.90;;;;;;5056407;28;20025;-75
2022/09/03 06:02:52;;;;;;;4.72;3.47;;;13.70;99.90;;;;;;5056085;28;20036;-75
2022/09/03 06:05:19;;;;;;;4.78;3.67;;;13.70;99.90;;;;;;5056508;28;20025;-74
2022/09/03 06:07:48;;;;;;;5.82;3.85;;;13.70;99.90;;;;;;5055867;28;20036;-74
2022/09/03 06:10:16;;;;;;;5.03;3.45;;;13.80;99.90;;;;;;5055713;28;20025;-74
2022/09/03 06:12:48;;;;;;;4.85;3.90;;;13.80;99.90;;;;;;5055934;28;20025;-75
2022/09/03 06:15:15;;;;;;;6.75;4.00;;;13.80;99.90;;;;;;5054714;28;20045;-75
2022/09/03 06:17:41;;;;;;;5.75;4.18;;;13.90;99.90;;;;;;5056052;28;20474;-74
2022/09/03 06:20:07;;;;;;;4.00;3.60;;;14.00;99.90;;;;;;5054559;28;20447;-75
2022/09/03 06:22:33;;;;;;;6.07;4.13;;;14.00;99.90;;;;;;5055925;28;20033;-74
2022/09/03 06:24:59;;;;;;;6.68;4.97;;;14.10;99.90;;;;;;5055929;28;20017;-75
2022/09/03 06:27:24;;;;;;;6.47;4.45;;;14.20;99.90;;;;;;5054700;28;20035;-74
2022/09/03 06:29:50;;;;;;;5.45;4.10;;;14.20;99.90;;;;;;5055805;28;20032;-75
2022/09/03 06:32:16;;;;;;;7.35;4.30;;;14.20;99.90;;;;;;5037607;28;20489;-75
2022/09/03 06:34:41;;;;;;;8.23;5.00;;;14.30;99.90;;;;;;5054722;28;20090;-73
2022/09/03 06:37:07;;;;;;;6.20;4.82;;;14.30;99.90;;;;;;5055343;28;20087;-73
2022/09/03 06:39:33;;;;;;;6.88;4.75;;;14.30;99.90;;;;;;5055643;28;20109;-74
2022/09/03 06:41:58;;;;;;;7.40;4.80;;;14.40;99.90;;;;;;5055511;28;20033;-74
2022/09/03 06:44:24;;;;;;;5.88;4.57;;;14.50;99.90;;;;;;5054340;28;20223;-74
2022/09/03 06:46:52;;;;;;;6.03;4.60;;;14.50;99.90;;;;;;5055182;28;20025;-74
2022/09/03 06:49:19;;;;;;;6.35;4.85;;;14.60;99.90;;;;;;5055076;28;20056;-73
2022/09/03 06:51:44;;;;;;;6.40;4.82;;;14.70;99.90;;;;;;5055412;28;20025;-75
2022/09/03 06:54:11;;;;;;;7.93;6.00;;;14.70;99.90;;;;;;5055403;28;20025;-75
2022/09/03 06:56:39;;;;;;;9.02;6.28;;;14.80;99.90;;;;;;5055421;28;20024;-74
2022/09/03 06:59:15;;;;;;;7.20;5.68;;;14.90;99.90;;;;;;5055294;28;20029;-74
2022/09/03 07:01:43;;;;;;;6.45;5.32;;;15.00;99.90;;;;;;5055986;28;20021;-73
2022/09/03 07:04:09;;;;;;;8.25;5.22;;;15.00;99.90;;;;;;5054826;28;20056;-73
2022/09/03 07:06:38;;;;;;;6.75;5.25;;;15.10;99.90;;;;;;5055127;28;20474;-74
2022/09/03 07:09:08;;;;;;;5.78;4.95;;;15.20;99.90;;;;;;5054808;28;20101;-73
2022/09/03 07:11:35;;;;;;;7.50;4.93;;;15.20;99.90;;;;;;5055110;28;20021;-74
2022/09/03 07:14:03;;;;;;;13.73;6.55;;;15.30;99.90;;;;;;5054822;28;20043;-73
2022/09/03 07:16:36;;;;;;;11.60;5.95;;;15.40;99.90;;;;;;5054106;28;20071;-73
2022/09/03 07:19:07;;;;;;;10.13;6.70;;;15.50;99.90;;;;;;5054403;28;20036;-73
2022/09/03 07:21:35;;;;;;;8.30;6.22;;;15.50;99.90;;;;;;5054603;28;20535;-73
2022/09/03 07:24:02;;;;;;;7.50;6.22;;;15.50;99.90;;;;;;5053336;28;20033;-73
2022/09/03 07:26:36;;;;;;;7.90;6.35;;;15.60;99.90;;;;;;5054367;28;20021;-74
2022/09/03 07:29:03;;;;;;;6.35;5.53;;;15.70;99.90;;;;;;5053138;28;20025;-73
2022/09/03 07:31:33;;;;;;;6.60;5.32;;;15.80;99.90;;;;;;5054251;28;20025;-74
2022/09/03 07:34:05;;;;;;;6.90;4.90;;;15.90;99.90;;;;;;5050196;28;20033;-74
2022/09/03 07:36:37;;;;;;;6.60;5.18;;;16.00;99.90;;;;;;5054238;28;20033;-74
2022/09/03 07:39:03;;;;;;;6.18;4.82;;;16.10;99.90;;;;;;5054111;28;20388;-74
2022/09/03 07:41:31;;;;;;;5.80;5.20;;;16.20;99.90;;;;;;5053939;28;20063;-74
2022/09/03 07:44:04;;;;;;;8.80;5.55;;;16.30;99.90;;;;;;5053735;28;20025;-74
2022/09/03 07:46:32;;;;;;;7.32;6.00;;;16.40;99.90;;;;;;5052562;28;20477;-73
2022/09/03 07:49:01;;;;;;;6.35;5.30;;;16.50;99.90;;;;;;5053019;28;20106;-74
2022/09/03 07:51:29;;;;;;;5.97;4.90;;;16.70;99.90;;;;;;5047335;28;20021;-74
2022/09/03 07:54:03;;;;;;;7.65;5.10;;;16.80;99.90;;;;;;5053809;28;20080;-74
2022/09/03 07:56:33;;;;;;;7.10;4.93;;;16.80;99.90;;;;;;5052627;28;20025;-74
2022/09/03 07:59:00;;;;;;;5.07;4.13;;;17.00;99.90;;;;;;5053463;28;20396;-74
2022/09/03 08:01:27;;;;;;;8.45;4.50;;;17.10;99.90;;;;;;5053421;28;20508;-74
2022/09/03 08:03:54;;;;;;;4.85;4.00;;;17.20;99.90;;;;;;5051522;28;20036;-74
2022/09/03 08:06:22;;;;;;;5.88;3.80;;;17.30;99.90;;;;;;5053296;28;20049;-74
2022/09/03 08:08:53;;;;;;;5.25;4.30;;;17.50;99.90;;;;;;5053432;28;20029;-74
2022/09/03 08:11:20;;;;;;;5.60;4.63;;;17.60;99.90;;;;;;5052571;28;20036;-74
2022/09/03 08:14:01;;;;;;;6.53;4.18;;;17.70;99.90;;;;;;5052630;28;20086;-74
2022/09/03 08:16:36;;;;;;;4.82;4.10;;;17.80;99.90;;;;;;5053251;28;20025;-74
2022/09/03 08:19:02;;;;;;;7.05;4.38;;;17.90;99.90;;;;;;5053349;28;20029;-74
2022/09/03 08:21:28;;;;;;;4.50;4.10;;;18.00;99.90;;;;;;5050650;28;20025;-74
2022/09/03 08:24:01;;;;;;;5.78;3.92;;;18.20;99.90;;;;;;5053399;28;20018;-74
2022/09/03 08:26:30;;;;;;;4.55;3.85;;;18.30;99.90;;;;;;5052038;28;20029;-74
2022/09/03 08:28:56;;;;;;;4.25;3.65;;;18.40;99.90;;;;;;5051105;28;20029;-74
2022/09/03 08:31:23;;;;;;;4.55;3.20;;;18.60;99.90;;;;;;5051912;28;20033;-74
2022/09/03 08:33:52;;;;;;;4.65;3.47;;;18.70;99.90;;;;;;5049594;28;20084;-74
2022/09/03 08:36:28;;;;;;;4.53;3.45;;;18.80;99.90;;;;;;5052300;28;20032;-74
2022/09/03 08:38:55;;;;;;;5.35;3.88;;;18.90;99.90;;;;;;5052472;28;20021;-74
2022/09/03 08:41:32;;;;;;;4.82;3.72;;;19.00;99.90;;;;;;5052418;28;20474;-74
2022/09/03 08:44:20;;;;;;;4.78;3.88;;;19.20;99.90;;;;;;5053395;28;20063;-74
2022/09/03 08:47:13;;;;;;;7.57;4.07;;;19.30;99.90;;;;;;5033057;28;20550;-74
2022/09/03 08:50:09;;;;;;;6.28;3.55;;;19.40;99.90;;;;;;5032159;28;20515;-74
2022/09/03 08:52:47;;;;;;;4.20;3.60;;;19.50;99.90;;;;;;5033230;28;20036;-74
2022/09/03 08:55:30;;;;;;;6.68;3.38;;;19.60;99.90;;;;;;5031919;28;20025;-74
2022/09/03 08:58:17;;;;;;;4.53;3.55;;;19.70;99.90;;;;;;5031821;28;20029;-73
2022/09/03 09:01:00;;;;;;;5.60;3.33;;;19.80;99.90;;;;;;5032916;28;20081;-74
2022/09/03 09:03:35;;;;;;;4.40;3.08;;;19.80;99.90;;;;;;5033268;28;20048;-74
2022/09/03 09:06:15;;;;;;;3.05;2.50;;;19.90;99.90;;;;;;5033092;28;20532;-74
2022/09/03 09:09:05;;;;;;;4.28;2.58;;;20.00;99.90;;;;;;5031867;28;20052;-74
2022/09/03 09:11:50;;;;;;;3.72;2.80;;;20.10;99.90;;;;;;5033663;28;20079;-74
2022/09/03 09:14:28;;;;;;;3.72;2.58;;;20.30;99.90;;;;;;5044796;28;20071;-74
2022/09/03 09:17:04;;;;;;;4.82;2.65;;;20.40;99.40;;;;;;5052950;28;20021;-74
2022/09/03 09:19:54;;;;;;;3.88;2.28;;;20.60;98.80;;;;;;5052994;28;20025;-74
2022/09/03 09:22:29;;;;;;;3.00;2.40;;;20.70;99.70;;;;;;5052864;28;20052;-74
2022/09/03 09:24:58;;;;;;;3.88;2.40;;;20.90;99.00;;;;;;5053213;28;20029;-74
2022/09/03 09:27:23;;;;;;;3.83;2.20;;;21.00;98.10;;;;;;5052566;28;20021;-73
2022/09/03 09:29:51;;;;;;;3.88;2.35;;;21.10;98.20;;;;;;5053142;28;20036;-74
2022/09/03 09:32:18;;;;;;;3.15;2.30;;;21.20;98.50;;;;;;5053364;28;20064;-74
2022/09/03 09:34:44;;;;;;;3.58;2.85;;;21.30;98.10;;;;;;5052855;28;20025;-74
2022/09/03 09:37:12;;;;;;;4.22;2.50;;;21.40;98.20;;;;;;5052926;28;20033;-74
2022/09/03 09:39:39;;;;;;;3.22;2.10;;;21.50;98.20;;;;;;5054096;28;20037;-74
2022/09/03 09:42:10;;;;;;;4.70;2.55;;;21.70;97.30;;;;;;5071312;28;20044;-74
2022/09/03 09:44:41;;;;;;;4.32;2.50;;;21.80;97.30;;;;;;5056383;28;20025;-74
2022/09/03 09:47:11;;;;;;;;;;;21.90;96.60;;;;;;5055334;28;20056;-73
2022/09/03 09:49:52;;;;;;;3.00;2.45;;;21.90;96.40;;;;;;5056050;28;20344;-74
2022/09/03 09:52:20;;;;;;;3.70;2.42;;;21.90;96.20;;;;;;5056579;28;20063;-74
2022/09/03 09:54:46;;;;;;;4.90;2.80;;;21.90;95.60;;;;;;5056428;28;20028;-73
2022/09/03 09:57:20;;;;;;;3.53;2.50;;;21.70;95.70;;;;;;5055110;28;20033;-74
2022/09/03 09:59:48;;;;;;;3.13;2.10;;;21.80;96.10;;;;;;5056206;28;20029;-73
2022/09/03 10:02:26;;;;;;;3.60;2.55;;;21.80;96.70;;;;;;5055202;28;20490;-74
2022/09/03 10:04:58;;;;;;;4.40;2.47;;;22.00;94.90;;;;;;5056454;28;20461;-73
2022/09/03 10:07:30;;;;;;;3.60;2.22;;;22.20;96.20;;;;;;5056263;28;20021;-73
2022/09/03 10:10:00;;;;;;;3.42;2.60;;;22.30;94.90;;;;;;5053523;28;20103;-73
2022/09/03 10:12:35;;;;;;;3.58;2.40;;;22.50;93.70;;;;;;5049607;28;20476;-72
2022/09/03 10:15:07;;;;;;;4.00;2.50;;;22.70;93.40;;;;;;5052011;28;20029;-72
2022/09/03 10:17:57;;;;;;;3.20;2.20;;;22.80;94.00;;;;;;5071119;28;20087;-72
2022/09/03 10:20:32;;;;;;;3.30;2.37;;;22.80;93.30;;;;;;5044394;28;20025;-73
2022/09/03 10:23:10;;;;;;;3.95;2.50;;;22.80;93.40;;;;;;5035759;28;20022;-74
2022/09/03 10:25:38;;;;;;;3.60;2.38;;;22.90;93.20;;;;;;5044034;28;20612;-72
2022/09/03 10:28:07;;;;;;;2.90;2.13;;;23.00;92.70;;;;;;5055617;28;20056;-73
2022/09/03 10:30:59;;;;;;;4.45;2.55;;;23.10;93.00;;;;;;5054388;28;20477;-72
2022/09/03 10:33:50;;;;;;;4.35;2.58;;;23.10;94.10;;;;;;5055235;28;20051;-72
2022/09/03 10:36:25;;;;;;;;;;;23.20;94.30;;;;;;5055924;28;20025;-72
2022/09/03 10:39:09;;;;;;;4.32;2.38;;;23.20;93.20;;;;;;5055524;28;19958;-72
2022/09/03 10:42:01;;;;;;;3.25;2.30;;;23.20;93.60;;;;;;5053895;28;20032;-72
2022/09/03 10:44:53;;;;;;;3.30;2.30;;;23.10;93.40;;;;;;5055674;28;20035;-72
2022/09/03 10:47:55;;;;;;;4.35;2.58;;;23.10;92.80;;;;;;5055777;28;20025;-72
2022/09/03 10:50:29;;;;;;;;;;;23.10;92.60;;;;;;5041466;28;20151;-72
2022/09/03 10:53:04;;;;;;;3.58;2.53;;;23.10;93.60;;;;;;5055179;28;20003;-72
2022/09/03 10:55:39;;;;;;;6.53;2.42;;;23.00;93.80;;;;;;5054113;28;20028;-72
2022/09/03 10:58:37;;;;;;;2.78;1.95;;;23.10;93.50;;;;;;5055455;28;20025;-72
2022/09/03 11:01:21;;;;;;;2.63;2.08;;;23.10;92.30;;;;;;5053660;28;20028;-72
2022/09/03 11:04:06;;;;;;;2.65;2.33;;;23.10;92.60;;;;;;5054999;28;20017;-73
2022/09/03 11:06:50;;;;;;;4.47;2.58;;;23.20;92.90;;;;;;5054967;28;20032;-71
2022/09/03 11:09:28;;;;;;;2.63;1.90;;;23.20;93.20;;;;;;5054602;28;20489;-72
2022/09/03 11:12:02;;;;;;;6.88;2.40;;;23.20;92.70;;;;;;5055380;28;20025;-71
2022/09/03 11:14:59;;;;;;;2.92;2.10;;;23.30;91.70;;;;;;5054747;28;20036;-72
2022/09/03 11:17:36;;;;;;;3.28;2.60;;;23.30;92.00;;;;;;5055115;28;20381;-71
2022/09/03 11:20:21;;;;;;;2.95;2.30;;;23.40;91.30;;;;;;5054700;28;20025;-72
2022/09/03 11:22:50;;;;;;;4.47;2.42;;;23.40;91.50;;;;;;5054302;28;20083;-72
2022/09/03 11:25:19;;;;;;;2.78;2.10;;;23.40;91.80;;;;;;5054864;28;20094;-72
2022/09/03 11:27:57;;;;;;;3.08;2.30;;;23.40;91.60;;;;;;5054728;28;20465;-72
2022/09/03 11:30:34;;;;;;;3.40;2.38;;;23.50;91.90;;;;;;5054494;28;20025;-72
2022/09/03 11:33:08;;;;;;;3.97;2.20;;;23.60;91.50;;;;;;5054677;28;20060;-73
2022/09/03 11:35:33;;;;;;;4.80;2.30;;;23.60;91.60;;;;;;5054706;28;20021;-72
2022/09/03 11:38:02;;;;;;;4.60;2.42;;;23.60;91.40;;;;;;5054396;28;20469;-72
2022/09/03 11:40:35;;;;;;;3.08;1.98;;;23.60;90.90;;;;;;5054568;28;20039;-72
2022/09/03 11:43:27;;;;;;;3.30;2.33;;;23.60;90.50;;;;;;5054167;28;20099;-72
2022/09/03 11:46:20;;;;;;;3.30;2.22;;;23.60;90.60;;;;;;5054439;28;20028;-72
2022/09/03 11:48:51;;;;;;;5.00;2.17;;;23.60;90.90;;;;;;5054594;28;20029;-71
2022/09/03 11:51:29;;;;;;;3.53;2.13;;;23.60;90.20;;;;;;5054065;28;20032;-72
2022/09/03 11:54:00;;;;;;;3.47;2.08;;;23.60;90.70;;;;;;5054282;28;20433;-72
2022/09/03 11:56:28;;;;;;;4.20;2.08;;;23.60;90.40;;;;;;5054298;28;20388;-72
2022/09/03 11:59:15;;;;;;;3.15;2.30;;;23.60;91.20;;;;;;5052590;28;20112;-72
2022/09/03 12:02:12;;;;;;;4.80;2.40;;;23.60;90.90;;;;;;5054044;28;20024;-72
2022/09/03 12:05:21;;;;;;;3.42;2.13;;;23.70;91.30;;;;;;5048715;28;20063;-72
2022/09/03 12:08:33;;;;;;;2.50;2.20;;;23.80;90.90;;;;;;5040220;28;20102;-71
2022/09/03 12:11:13;;;;;;;2.42;1.80;;;23.90;90.50;;;;;;5056092;28;20040;-72
2022/09/03 12:13:56;;;;;;;2.95;2.10;;;23.90;90.20;;;;;;5052125;28;20033;-72
2022/09/03 12:16:22;;;;;;;2.60;1.95;;;24.00;89.80;;;;;;5053792;28;20071;-70
2022/09/03 12:18:51;;;;;;;3.08;1.85;;;24.00;88.40;;;;;;5045043;28;20045;-71
2022/09/03 12:21:18;;;;;;;2.80;2.10;;;24.00;87.70;;;;;;5043949;28;20531;-71
2022/09/03 12:23:48;;;;;;;4.78;2.20;;;24.10;88.60;;;;;;5049320;28;20029;-72
2022/09/03 12:26:16;;;;;;;3.00;2.10;;;24.10;87.10;;;;;;5046652;28;20482;-71
2022/09/03 12:28:51;;;;;;;3.08;2.22;;;24.20;86.60;;;;;;5052164;28;20110;-72
2022/09/03 12:31:24;;;;;;;3.90;1.90;;;24.20;88.30;;;;;;5053288;28;20367;-72
2022/09/03 12:33:53;;;;;;;3.67;2.05;;;24.20;87.40;;;;;;5052995;28;20111;-72
2022/09/03 12:36:21;;;;;;;2.85;2.13;;;24.10;89.70;;;;;;5053201;28;20037;-72
2022/09/03 12:38:47;;;;;;;2.85;2.25;;;24.10;90.10;;;;;;5053212;28;20021;-71
2022/09/03 12:41:27;;;;;;;4.15;2.10;;;24.10;86.90;;;;;;5052219;28;20035;-71
2022/09/03 12:43:57;;;;;;;2.50;1.90;;;24.00;85.90;;;;;;5053341;28;20045;-72
2022/09/03 12:46:28;;;;;;;6.28;2.35;;;23.90;86.30;;;;;;5053225;28;20032;-71
2022/09/03 12:49:03;;;;;;;2.42;1.90;;;23.90;88.60;;;;;;5053029;28;20473;-73
2022/09/03 12:52:06;;;;;;;3.17;2.25;;;23.90;86.90;;;;;;5033235;28;20025;-72
2022/09/03 12:54:35;;;;;;;3.03;2.05;;;23.90;87.40;;;;;;5049915;28;20037;-72
2022/09/03 12:57:02;;;;;;;3.95;2.22;;;23.90;86.30;;;;;;5052668;28;20017;-72
2022/09/03 12:59:33;;;;;;;2.60;2.10;;;24.00;86.70;;;;;;5052335;28;20495;-72
2022/09/03 13:02:10;;;;;;;3.83;1.95;;;24.10;87.40;;;;;;5050002;28;20075;-72
2022/09/03 13:04:38;;;;;;;5.53;1.88;;;24.10;87.30;;;;;;5050745;28;20025;-72
2022/09/03 13:07:10;;;;;;;2.67;1.83;;;24.10;87.20;;;;;;5050223;28;20557;-73
2022/09/03 13:09:39;;;;;;;3.83;2.25;;;24.00;88.60;;;;;;5052927;28;20392;-72
2022/09/03 13:12:05;;;;;;;2.88;2.10;;;24.00;88.90;;;;;;5052890;28;20028;-71
2022/09/03 13:14:49;;;;;;;4.72;2.30;;;24.00;87.60;;;;;;5053699;28;20036;-71
2022/09/03 13:17:24;;;;;;;3.45;1.90;;;24.00;87.80;;;;;;5055917;28;20033;-72
2022/09/03 13:20:21;;;;;;;2.83;2.13;;;24.10;87.30;;;;;;5056348;28;20416;-71
2022/09/03 13:23:24;;;;;;;2.70;2.10;;;24.20;87.30;;;;;;5055729;28;20117;-72